Time;durP1;ratioP1;P1;durP2;ratioP2;P2;SDS_P1;SDS_P2;PMS_P1;PMS_P2;Temp;Humidity;BMP_temperature;BMP_pressure;BME280_temperature;BME280_humidity;BME280_pressure;Samples;Min_cycle;Max_cycle;Signal;HPM_P1;HPM_P2
2023/07/19 00:00:07;;;;;;;10.60;3.00;;;;;;;19.52;53.66;98969.23;107986;1307;22195;-48
2023/07/19 00:02:32;;;;;;;16.80;3.50;;;;;;;19.48;53.42;98970.21;108012;1307;22252;-46
2023/07/19 00:04:58;;;;;;;10.80;3.60;;;;;;;19.46;53.83;98976.94;107999;1307;22984;-48
2023/07/19 00:07:23;;;;;;;9.00;3.00;;;;;;;19.45;54.81;98977.06;107969;1307;22246;-46
2023/07/19 00:09:48;;;;;;;9.50;4.10;;;;;;;19.43;54.41;98978.66;107987;1307;22456;-53
2023/07/19 00:12:14;;;;;;;9.10;4.00;;;;;;;19.40;54.85;98977.34;107973;1307;22430;-47
2023/07/19 00:14:39;;;;;;;13.30;3.90;;;;;;;19.39;55.04;98971.96;107992;1307;23581;-47
2023/07/19 00:17:05;;;;;;;14.30;3.80;;;;;;;19.38;55.35;98968.13;107974;1307;22125;-49
2023/07/19 00:19:30;;;;;;;17.00;3.60;;;;;;;19.35;55.22;98970.73;107999;1307;22463;-47
2023/07/19 00:21:55;;;;;;;14.60;3.70;;;;;;;19.32;55.26;98962.85;107989;1307;22354;-52
2023/07/19 00:24:20;;;;;;;15.30;4.20;;;;;;;19.28;56.10;98959.88;107993;1307;22103;-46
2023/07/19 00:26:48;;;;;;;9.60;3.60;;;;;;;19.24;56.35;98960.45;107992;1307;22251;-51
2023/07/19 00:29:14;;;;;;;15.60;3.30;;;;;;;19.20;56.77;98956.92;107996;1307;22426;-48
2023/07/19 00:31:39;;;;;;;15.00;3.70;;;;;;;19.17;56.95;98952.73;107993;1307;22485;-49
2023/07/19 00:34:04;;;;;;;13.70;3.30;;;;;;;19.15;56.57;98950.25;107982;1307;22247;-50
2023/07/19 00:36:30;;;;;;;12.80;3.40;;;;;;;19.12;56.54;98939.85;107990;1307;22253;-47
2023/07/19 00:38:55;;;;;;;11.60;3.30;;;;;;;19.08;56.51;98935.48;107988;1307;22457;-48
2023/07/19 00:41:21;;;;;;;15.50;3.60;;;;;;;19.05;56.78;98937.15;107991;1307;22235;-44
2023/07/19 00:43:47;;;;;;;22.90;4.30;;;;;;;19.03;57.28;98936.11;107997;1304;23110;-48
2023/07/19 00:46:13;;;;;;;25.00;4.80;;;;;;;19.02;57.31;98933.02;107975;1307;22268;-46
2023/07/19 00:48:38;;;;;;;10.20;3.50;;;;;;;18.99;56.88;98934.03;108003;1307;22398;-49
2023/07/19 00:51:04;;;;;;;8.90;4.00;;;;;;;18.97;57.24;98933.31;107985;1307;23048;-47
2023/07/19 00:53:29;;;;;;;14.70;3.50;;;;;;;18.99;56.90;98931.55;107984;1307;22527;-46
2023/07/19 00:55:55;;;;;;;11.40;3.40;;;;;;;18.99;56.91;98927.80;107973;1307;22244;-50
2023/07/19 00:58:23;;;;;;;14.20;3.70;;;;;;;18.98;57.14;98922.39;107969;1307;22979;-51
2023/07/19 01:00:50;;;;;;;15.50;4.00;;;;;;;18.96;57.14;98920.46;107985;1307;22270;-48
2023/07/19 01:03:16;;;;;;;22.40;4.50;;;;;;;18.94;57.59;98913.69;107975;1307;22268;-48
2023/07/19 01:05:43;;;;;;;17.30;3.80;;;;;;;18.93;57.51;98907.41;107978;1307;22437;-50
2023/07/19 01:08:08;;;;;;;10.70;3.90;;;;;;;18.92;57.69;98904.02;107976;1307;23254;-50
2023/07/19 01:10:34;;;;;;;22.40;4.70;;;;;;;18.89;57.49;98902.27;108001;1298;22304;-50
2023/07/19 01:13:03;;;;;;;13.00;3.80;;;;;;;18.88;58.05;98901.58;107977;1307;22231;-48
2023/07/19 01:15:29;;;;;;;20.10;4.20;;;;;;;18.85;58.03;98899.15;107951;1307;22421;-45
2023/07/19 01:17:54;;;;;;;15.60;4.10;;;;;;;18.84;58.23;98897.00;107952;1307;22251;-46
2023/07/19 01:20:19;;;;;;;16.60;4.40;;;;;;;18.80;57.93;98897.45;107949;1307;22231;-50
2023/07/19 01:22:46;;;;;;;10.70;3.90;;;;;;;18.79;56.55;98892.23;107958;1307;23267;-48
2023/07/19 01:25:12;;;;;;;10.10;3.60;;;;;;;18.78;57.39;98889.48;107962;1307;22232;-44
2023/07/19 01:27:37;;;;;;;16.70;4.00;;;;;;;18.77;56.86;98885.87;107961;1307;22393;-47
2023/07/19 01:30:03;;;;;;;11.30;3.50;;;;;;;18.75;57.27;98888.36;107943;1307;22236;-46
2023/07/19 01:32:28;;;;;;;11.00;3.60;;;;;;;18.75;57.39;98886.02;107942;1307;22333;-47
2023/07/19 01:34:53;;;;;;;10.50;3.40;;;;;;;18.76;56.56;98880.44;107950;1307;22322;-46
2023/07/19 01:37:19;;;;;;;9.50;3.10;;;;;;;18.72;56.20;98881.48;107941;1307;22254;-49
2023/07/19 01:39:44;;;;;;;8.60;4.10;;;;;;;18.69;56.48;98880.55;107956;1307;23075;-47
2023/07/19 01:42:09;;;;;;;12.80;3.90;;;;;;;18.66;56.00;98881.71;107936;1296;22227;-48
2023/07/19 01:44:35;;;;;;;10.50;3.60;;;;;;;18.67;56.30;98880.80;107943;1286;22241;-47
2023/07/19 01:47:00;;;;;;;9.10;3.50;;;;;;;18.68;56.77;98872.48;107940;1307;22241;-48
2023/07/19 01:49:25;;;;;;;14.00;4.10;;;;;;;18.70;56.92;98869.50;107957;1307;22212;-47
2023/07/19 01:51:50;;;;;;;9.10;4.10;;;;;;;18.70;57.04;98870.52;107972;1307;22250;-47
2023/07/19 01:54:16;;;;;;;15.60;3.60;;;;;;;18.68;57.66;98870.55;107967;1307;22240;-48
2023/07/19 01:56:41;;;;;;;8.00;3.80;;;;;;;18.68;57.61;98873.60;107942;1307;22241;-46
2023/07/19 01:59:06;;;;;;;5.60;3.90;;;;;;;18.67;57.08;98873.80;107951;1307;23129;-46
2023/07/19 02:01:31;;;;;;;9.40;3.80;;;;;;;18.66;57.05;98872.66;107958;1307;22511;-46
2023/07/19 02:03:57;;;;;;;5.20;3.40;;;;;;;18.67;56.90;98877.19;107941;1307;22255;-51
2023/07/19 02:06:22;;;;;;;8.50;3.60;;;;;;;18.70;57.31;98876.73;107937;1307;22421;-50
2023/07/19 02:08:47;;;;;;;7.60;3.90;;;;;;;18.73;57.22;98877.33;107938;1307;22279;-47
2023/07/19 02:11:12;;;;;;;16.40;4.20;;;;;;;18.78;56.83;98873.80;107951;1307;22238;-48
2023/07/19 02:13:38;;;;;;;9.50;3.20;;;;;;;18.81;56.79;98873.02;107961;1307;22339;-46
2023/07/19 02:16:03;;;;;;;15.00;3.10;;;;;;;18.86;56.53;98873.99;107957;1307;23118;-45
2023/07/19 02:18:29;;;;;;;8.70;3.00;;;;;;;18.88;55.66;98868.83;107979;1307;22232;-46
2023/07/19 02:20:55;;;;;;;10.10;3.10;;;;;;;18.93;55.26;98865.21;107955;1307;22247;-47
2023/07/19 02:23:21;;;;;;;6.20;3.20;;;;;;;18.91;55.20;98861.31;107968;1307;22246;-43
2023/07/19 02:25:50;;;;;;;4.60;2.30;;;;;;;18.88;55.00;98861.02;107940;1307;23055;-46
2023/07/19 02:28:16;;;;;;;4.50;2.50;;;;;;;18.88;54.74;98861.06;107838;1307;22320;-46
2023/07/19 02:30:46;;;;;;;5.40;2.70;;;;;;;18.88;54.67;98863.21;107933;1307;22369;-50
2023/07/19 02:33:12;;;;;;;6.70;2.40;;;;;;;18.88;54.37;98860.53;107962;1307;22301;-47
2023/07/19 02:35:38;;;;;;;13.30;2.50;;;;;;;18.87;53.48;98856.74;107966;1307;22273;-52
2023/07/19 02:38:03;;;;;;;9.20;2.70;;;;;;;18.88;53.73;98857.13;107970;1289;22242;-51
2023/07/19 02:40:29;;;;;;;5.50;2.20;;;;;;;18.92;54.23;98856.38;107963;1307;23183;-47
2023/07/19 02:42:54;;;;;;;6.30;2.70;;;;;;;18.94;54.32;98858.66;107976;1290;22246;-48
2023/07/19 02:45:20;;;;;;;7.40;2.30;;;;;;;18.97;53.34;98862.09;107945;1307;22237;-49
2023/07/19 02:47:45;;;;;;;4.40;2.20;;;;;;;18.97;53.26;98865.63;107970;1307;22332;-50
2023/07/19 02:50:11;;;;;;;2.60;2.00;;;;;;;18.98;53.07;98864.07;107975;1307;22417;-49
2023/07/19 02:52:36;;;;;;;3.80;2.20;;;;;;;18.98;53.29;98862.70;107945;1307;22253;-46
2023/07/19 02:55:01;;;;;;;7.80;2.40;;;;;;;18.97;52.70;98862.23;107968;1307;23041;-49
2023/07/19 02:57:26;;;;;;;4.60;2.50;;;;;;;18.96;52.20;98865.58;107853;1307;143921;-51
2023/07/19 02:59:52;;;;;;;5.30;2.30;;;;;;;18.92;52.20;98861.58;107972;1307;22938;-47
2023/07/19 03:02:17;;;;;;;4.60;2.40;;;;;;;18.89;52.54;98860.43;107961;1307;22222;-47
2023/07/19 03:04:42;;;;;;;7.40;2.40;;;;;;;18.86;52.47;98863.06;107965;1307;23051;-47
2023/07/19 03:07:08;;;;;;;4.20;2.30;;;;;;;18.80;52.67;98859.64;107977;1307;22301;-49
2023/07/19 03:09:33;;;;;;;5.90;2.70;;;;;;;18.79;53.38;98861.86;107964;1307;22414;-51
2023/07/19 03:11:58;;;;;;;8.20;2.70;;;;;;;18.76;53.53;98858.59;107974;1307;22300;-48
2023/07/19 03:14:24;;;;;;;7.90;2.60;;;;;;;18.74;53.45;98860.39;107961;1307;22224;-48
2023/07/19 03:16:49;;;;;;;5.70;2.30;;;;;;;18.72;53.48;98861.77;107947;1307;22824;-46
2023/07/19 03:19:14;;;;;;;7.80;2.50;;;;;;;18.72;54.33;98858.44;107943;1307;24287;-49
2023/07/19 03:21:40;;;;;;;7.40;2.60;;;;;;;18.71;54.85;98853.92;107961;1307;22872;-47
2023/07/19 03:24:05;;;;;;;6.90;2.50;;;;;;;18.70;54.92;98848.35;107992;1307;22424;-51
2023/07/19 03:26:30;;;;;;;4.50;2.40;;;;;;;18.72;54.58;98849.90;107957;1307;22448;-48
2023/07/19 03:28:56;;;;;;;5.10;2.10;;;;;;;18.73;53.52;98850.70;107955;1307;22249;-50
2023/07/19 03:31:21;;;;;;;3.30;2.10;;;;;;;18.74;53.81;98850.57;107973;1307;22408;-48
2023/07/19 03:33:46;;;;;;;8.70;2.40;;;;;;;18.76;53.51;98844.93;107951;1307;25101;-47
2023/07/19 03:36:12;;;;;;;5.70;2.10;;;;;;;18.76;53.58;98841.89;107956;1307;22403;-49
2023/07/19 03:38:37;;;;;;;3.60;2.30;;;;;;;18.76;53.70;98843.24;107948;1307;22805;-49
2023/07/19 03:41:09;;;;;;;3.60;1.70;;;;;;;18.78;53.71;98845.02;107932;1307;23173;-50
2023/07/19 03:43:35;;;;;;;3.80;1.60;;;;;;;18.80;53.51;98847.38;107981;1307;23307;-47
2023/07/19 03:46:01;;;;;;;3.60;1.80;;;;;;;18.81;52.98;98841.77;107979;1307;22227;-51
2023/07/19 03:48:26;;;;;;;5.10;1.90;;;;;;;18.85;52.44;98840.41;107955;1307;22514;-46
2023/07/19 03:51:01;;;;;;;3.40;1.80;;;;;;;18.88;52.07;98843.10;107973;1307;22143;-45
2023/07/19 03:53:27;;;;;;;6.00;1.60;;;;;;;18.90;51.48;98845.36;107968;1307;22822;-50
2023/07/19 03:55:57;;;;;;;3.70;1.90;;;;;;;18.93;51.24;98845.08;107976;1307;22319;-46
2023/07/19 03:58:26;;;;;;;3.50;1.80;;;;;;;18.96;50.64;98841.77;107982;1307;22291;-44
2023/07/19 04:00:52;;;;;;;3.90;1.70;;;;;;;18.99;50.68;98842.72;108000;1307;22249;-47
2023/07/19 04:03:18;;;;;;;10.00;1.90;;;;;;;19.01;51.17;98845.02;107966;1307;22528;-50
2023/07/19 04:05:44;;;;;;;4.30;1.80;;;;;;;19.02;51.61;98845.54;107985;1307;23098;-48
2023/07/19 04:08:09;;;;;;;6.60;1.80;;;;;;;19.04;51.88;98848.45;107975;1307;22284;-47
2023/07/19 04:10:34;;;;;;;7.10;2.10;;;;;;;19.07;51.32;98848.37;107993;1307;22422;-51
2023/07/19 04:13:00;;;;;;;5.50;1.60;;;;;;;19.09;51.45;98846.41;108005;1307;22439;-50
2023/07/19 04:15:25;;;;;;;4.00;1.70;;;;;;;19.12;50.74;98841.52;107961;1307;22210;-49
2023/07/19 04:17:50;;;;;;;8.80;1.70;;;;;;;19.13;50.28;98843.77;107982;1307;22490;-44
2023/07/19 04:20:16;;;;;;;6.90;2.00;;;;;;;19.17;50.54;98845.59;107992;1307;22408;-45
2023/07/19 04:22:41;;;;;;;3.80;1.70;;;;;;;19.21;50.51;98847.04;107980;1307;22239;-45
2023/07/19 04:25:08;;;;;;;4.10;1.70;;;;;;;19.24;49.81;98850.80;107982;1307;22965;-50
2023/07/19 04:27:33;;;;;;;4.70;1.40;;;;;;;19.27;49.69;98850.65;107973;1307;22206;-48
2023/07/19 04:29:59;;;;;;;6.50;1.60;;;;;;;19.30;49.77;98850.52;107969;1307;22224;-50
2023/07/19 04:32:25;;;;;;;7.20;1.80;;;;;;;19.35;48.67;98850.80;107970;1307;22579;-48
2023/07/19 04:34:53;;;;;;;3.60;1.60;;;;;;;19.38;48.42;98847.42;107983;1307;22427;-50
2023/07/19 04:37:18;;;;;;;;;;;;;;;19.42;47.58;98847.40;108003;1307;22472;-44
2023/07/19 04:39:43;;;;;;;3.00;1.80;;;;;;;19.47;47.34;98846.41;107958;1307;22461;-49
2023/07/19 04:42:09;;;;;;;7.50;1.90;;;;;;;19.52;47.54;98845.92;107962;1307;22926;-50
2023/07/19 04:44:34;;;;;;;5.10;2.10;;;;;;;19.51;47.13;98844.86;107987;1307;23419;-45
2023/07/19 04:46:59;;;;;;;8.60;2.30;;;;;;;19.54;46.91;98848.30;107962;1307;22253;-50
2023/07/19 04:49:25;;;;;;;8.50;2.60;;;;;;;19.57;47.40;98849.11;107974;1307;22254;-49
2023/07/19 04:51:51;;;;;;;60.70;5.20;;;;;;;19.61;47.79;98849.66;107954;1307;22261;-50
2023/07/19 04:54:16;;;;;;;44.50;5.10;;;;;;;19.62;46.97;98846.64;107958;1307;22270;-49
2023/07/19 04:56:42;;;;;;;37.00;4.00;;;;;;;19.64;45.69;98842.77;107966;1307;22261;-47
2023/07/19 04:59:07;;;;;;;19.00;3.20;;;;;;;19.67;47.18;98843.83;107960;1307;22239;-48
2023/07/19 05:01:32;;;;;;;11.90;2.90;;;;;;;19.69;46.60;98842.41;107948;1307;22526;-49
2023/07/19 05:03:58;;;;;;;3.80;2.20;;;;;;;19.71;46.81;98841.52;107974;1307;22440;-52
2023/07/19 05:06:23;;;;;;;10.30;2.60;;;;;;;19.72;46.28;98841.80;107969;1307;22429;-50
2023/07/19 05:08:48;;;;;;;7.90;2.40;;;;;;;19.74;45.84;98844.95;107962;1307;22988;-44
2023/07/19 05:11:13;;;;;;;8.90;2.00;;;;;;;19.76;45.32;98841.77;107976;1307;22734;-50
2023/07/19 05:13:39;;;;;;;6.60;2.40;;;;;;;19.79;46.05;98842.48;107970;1307;22227;-43
2023/07/19 05:16:04;;;;;;;7.60;2.90;;;;;;;19.82;45.91;98842.54;107970;1307;22320;-53
2023/07/19 05:18:30;;;;;;;11.00;3.70;;;;;;;19.85;45.86;98840.52;107978;1307;22282;-55
2023/07/19 05:20:55;;;;;;;11.30;3.00;;;;;;;19.88;45.69;98840.35;107960;1307;22262;-48
2023/07/19 05:23:20;;;;;;;7.60;2.30;;;;;;;19.90;44.73;98839.59;107956;1307;22256;-46
2023/07/19 05:25:46;;;;;;;6.10;2.30;;;;;;;19.96;45.50;98839.94;107953;1307;22246;-44
2023/07/19 05:28:12;;;;;;;8.80;2.50;;;;;;;19.99;46.58;98842.30;107983;1307;22322;-50
2023/07/19 05:30:37;;;;;;;4.30;2.20;;;;;;;20.03;45.71;98843.52;107952;1307;22498;-45
2023/07/19 05:33:02;;;;;;;7.90;2.30;;;;;;;20.07;45.83;98845.42;107961;1307;22251;-45
2023/07/19 05:35:30;;;;;;;7.30;2.30;;;;;;;20.10;44.43;98844.14;107971;1307;22203;-48
2023/07/19 05:37:56;;;;;;;8.10;2.30;;;;;;;20.14;44.14;98842.66;107959;1306;22217;-52
2023/07/19 05:40:21;;;;;;;9.20;2.50;;;;;;;20.20;44.65;98841.00;107957;1307;22470;-52
2023/07/19 05:42:47;;;;;;;7.00;2.50;;;;;;;20.25;44.63;98840.16;107952;1307;23137;-48
2023/07/19 05:45:12;;;;;;;8.50;2.10;;;;;;;20.29;44.24;98841.09;107946;1307;22409;-48
2023/07/19 05:47:38;;;;;;;6.70;2.40;;;;;;;20.36;44.14;98838.33;107961;1307;22486;-43
2023/07/19 05:50:03;;;;;;;8.10;2.30;;;;;;;20.42;43.30;98835.92;107943;1307;22344;-47
2023/07/19 05:52:29;;;;;;;11.10;2.60;;;;;;;20.47;44.15;98835.88;107959;1307;22257;-43
2023/07/19 05:54:54;;;;;;;7.10;2.70;;;;;;;20.53;43.93;98833.73;107950;1307;22283;-49
2023/07/19 05:57:20;;;;;;;5.50;2.30;;;;;;;20.57;43.14;98834.77;107965;1307;22401;-49
2023/07/19 05:59:45;;;;;;;7.50;2.50;;;;;;;20.63;43.84;98831.65;107927;1307;22477;-51
2023/07/19 06:02:10;;;;;;;7.60;2.30;;;;;;;20.71;43.65;98833.45;107950;1307;22250;-49
2023/07/19 06:04:36;;;;;;;8.90;2.50;;;;;;;20.80;43.91;98829.13;107972;1307;23118;-46
2023/07/19 06:07:01;;;;;;;9.70;2.10;;;;;;;20.89;43.36;98830.36;107953;1307;22292;-48
2023/07/19 06:09:27;;;;;;;9.70;2.40;;;;;;;20.96;43.10;98828.48;107932;1307;22915;-51
2023/07/19 06:11:56;;;;;;;10.30;2.60;;;;;;;21.05;42.59;98828.74;107684;1307;22854;-47
2023/07/19 06:14:22;;;;;;;12.30;2.40;;;;;;;21.14;41.96;98823.95;107941;1307;23329;-47
2023/07/19 06:16:47;;;;;;;6.60;2.30;;;;;;;21.25;41.76;98822.93;107957;1307;22254;-47
2023/07/19 06:19:15;;;;;;;5.10;2.20;;;;;;;21.37;41.67;98823.15;107951;1307;23033;-44
2023/07/19 06:21:40;;;;;;;7.30;2.30;;;;;;;21.48;41.53;98821.91;107974;1307;23040;-48
2023/07/19 06:24:06;;;;;;;10.20;2.50;;;;;;;21.58;41.82;98821.59;107962;1307;23005;-46
2023/07/19 06:26:31;;;;;;;10.40;2.30;;;;;;;21.68;41.69;98820.35;107959;1307;22289;-46
2023/07/19 06:28:56;;;;;;;7.20;2.10;;;;;;;21.76;41.43;98817.30;107964;1307;22221;-49
2023/07/19 06:31:21;;;;;;;11.90;2.10;;;;;;;21.82;40.87;98818.58;107966;1307;22366;-50
2023/07/19 06:33:47;;;;;;;8.30;2.80;;;;;;;21.87;40.21;98816.48;107976;1307;23145;-45
2023/07/19 06:36:12;;;;;;;4.80;1.60;;;;;;;21.92;40.97;98815.05;107967;1307;22422;-47
2023/07/19 06:38:37;;;;;;;6.90;1.80;;;;;;;21.97;41.27;98814.98;107969;1307;22258;-53
2023/07/19 06:41:04;;;;;;;5.80;2.00;;;;;;;21.97;40.29;98812.88;107951;1307;22147;-49
2023/07/19 06:43:30;;;;;;;7.10;2.10;;;;;;;21.98;41.03;98809.55;107972;1307;22608;-48
2023/07/19 06:45:55;;;;;;;5.10;2.30;;;;;;;22.01;41.01;98810.28;107959;1307;23019;-45
2023/07/19 06:48:21;;;;;;;5.30;1.80;;;;;;;22.05;41.42;98810.02;107964;1307;22931;-50
2023/07/19 06:50:46;;;;;;;4.10;2.20;;;;;;;22.06;40.47;98808.94;107974;1307;22231;-50
2023/07/19 06:53:12;;;;;;;4.10;1.60;;;;;;;22.11;40.87;98808.66;107958;1307;23173;-47
2023/07/19 06:55:38;;;;;;;8.00;1.70;;;;;;;22.12;41.04;98808.19;107959;1307;22406;-49
2023/07/19 06:58:03;;;;;;;7.90;1.80;;;;;;;22.10;40.34;98808.59;107974;1307;22885;-46
2023/07/19 07:00:29;;;;;;;3.80;2.30;;;;;;;22.13;40.02;98805.70;107942;1307;23084;-47
2023/07/19 07:02:54;;;;;;;5.10;2.00;;;;;;;22.14;39.65;98807.05;107937;1307;22216;-48
2023/07/19 07:05:19;;;;;;;8.20;2.00;;;;;;;22.16;40.42;98803.73;107943;1307;23189;-45
2023/07/19 07:07:44;;;;;;;7.60;1.90;;;;;;;22.24;40.93;98798.84;107948;1286;22244;-45
2023/07/19 07:10:10;;;;;;;5.70;1.60;;;;;;;22.30;39.73;98796.05;107973;1307;22406;-48
2023/07/19 07:12:36;;;;;;;10.60;1.50;;;;;;;22.36;39.81;98795.46;107973;1307;22242;-48
2023/07/19 07:15:02;;;;;;;2.50;1.80;;;;;;;22.39;38.95;98794.66;107957;1307;22266;-46
2023/07/19 07:17:27;;;;;;;3.80;1.90;;;;;;;22.39;39.25;98796.23;107968;1307;22239;-44
2023/07/19 07:19:53;;;;;;;3.30;1.60;;;;;;;22.39;39.17;98796.59;107957;1307;22230;-44
2023/07/19 07:22:19;;;;;;;4.50;1.60;;;;;;;22.36;38.57;98795.38;108006;1307;22404;-47
2023/07/19 07:24:45;;;;;;;3.00;1.50;;;;;;;22.37;38.60;98792.39;108005;1307;22856;-45
2023/07/19 07:27:10;;;;;;;9.80;2.40;;;;;;;22.39;38.43;98789.43;107978;1285;22263;-46
2023/07/19 07:29:36;;;;;;;6.80;1.70;;;;;;;22.41;38.40;98783.36;107961;1307;22404;-48
2023/07/19 07:32:02;;;;;;;7.50;1.80;;;;;;;22.45;38.41;98781.65;108004;1307;22290;-48
2023/07/19 07:34:27;;;;;;;2.20;1.50;;;;;;;22.49;38.17;98782.99;107978;1307;23299;-46
2023/07/19 07:36:52;;;;;;;3.30;1.20;;;;;;;22.54;37.54;98777.08;107986;1307;22257;-48
2023/07/19 07:39:19;;;;;;;3.70;1.30;;;;;;;22.56;36.43;98774.98;107984;1307;22398;-46
2023/07/19 07:41:45;;;;;;;2.00;1.20;;;;;;;22.59;36.57;98773.95;107971;1307;22313;-46
2023/07/19 07:44:10;;;;;;;4.70;1.30;;;;;;;22.62;36.51;98769.17;107975;1307;22921;-51
2023/07/19 07:46:36;;;;;;;3.70;1.30;;;;;;;22.65;36.30;98765.06;107986;1307;22293;-48
2023/07/19 07:49:01;;;;;;;2.20;1.20;;;;;;;22.69;36.20;98765.35;107977;1307;22273;-45
2023/07/19 07:51:29;;;;;;;1.30;1.20;;;;;;;22.73;35.66;98763.79;107995;1307;22251;-45
2023/07/19 07:53:54;;;;;;;6.20;1.40;;;;;;;22.81;35.83;98765.55;107974;1288;22281;-51
2023/07/19 07:56:19;;;;;;;5.40;1.30;;;;;;;22.91;36.05;98762.11;107989;1286;22283;-48
2023/07/19 07:58:45;;;;;;;2.70;1.10;;;;;;;23.00;35.49;98756.25;107975;1307;22272;-50
2023/07/19 08:01:10;;;;;;;5.20;1.00;;;;;;;23.08;35.36;98752.21;107961;1307;22268;-46
2023/07/19 08:03:35;;;;;;;1.50;1.10;;;;;;;23.10;32.73;98748.83;107966;1307;22416;-45
2023/07/19 08:06:04;;;;;;;2.60;1.20;;;;;;;23.09;32.33;98747.71;107961;1307;23045;-50
2023/07/19 08:08:29;;;;;;;6.30;1.50;;;;;;;23.10;32.74;98745.30;107996;1307;22251;-50
2023/07/19 08:10:54;;;;;;;2.10;1.20;;;;;;;23.16;33.31;98747.75;108004;1307;22234;-48
2023/07/19 08:13:20;;;;;;;1.60;1.00;;;;;;;23.30;33.56;98745.30;108004;1307;22767;-48
2023/07/19 08:15:46;;;;;;;4.20;1.40;;;;;;;23.44;33.41;98743.64;107979;1307;23270;-51
2023/07/19 08:18:11;;;;;;;1.90;1.50;;;;;;;23.54;32.60;98747.98;107973;1307;23318;-49
2023/07/19 08:20:36;;;;;;;1.50;1.20;;;;;;;23.64;32.37;98747.57;107973;1307;22942;-51
2023/07/19 08:23:02;;;;;;;1.80;1.30;;;;;;;23.71;33.17;98740.73;107970;1307;23009;-48
2023/07/19 08:25:27;;;;;;;2.10;1.20;;;;;;;23.83;32.84;98736.56;107951;1307;24203;-48
2023/07/19 08:27:52;;;;;;;3.20;1.30;;;;;;;23.98;32.96;98732.95;107961;1307;23867;-48
2023/07/19 08:30:18;;;;;;;7.40;1.40;;;;;;;24.14;33.20;98734.33;107994;1307;22239;-48
2023/07/19 08:32:47;;;;;;;1.50;1.30;;;;;;;24.31;33.00;98729.72;107957;1307;22919;-48
2023/07/19 08:35:17;;;;;;;4.10;1.70;;;;;;;24.40;32.55;98733.23;107962;1307;22274;-53
2023/07/19 08:37:46;;;;;;;2.60;1.50;;;;;;;24.51;32.14;98736.80;107958;1307;22241;-48
2023/07/19 08:40:14;;;;;;;5.00;1.40;;;;;;;24.64;31.91;98734.86;107952;1307;22252;-45
2023/07/19 08:42:40;;;;;;;9.70;2.50;;;;;;;24.80;31.88;98732.80;107896;1307;22742;-49
2023/07/19 08:45:07;;;;;;;2.50;1.20;;;;;;;24.99;31.34;98731.13;107872;1304;22345;-49
2023/07/19 08:47:33;;;;;;;3.20;1.60;;;;;;;25.10;30.65;98729.00;107961;1307;22218;-50
2023/07/19 08:49:59;;;;;;;2.90;1.20;;;;;;;25.15;30.51;98726.91;107968;1307;23114;-51
2023/07/19 08:52:27;;;;;;;3.30;1.50;;;;;;;25.30;30.63;98717.95;107966;1307;23107;-50
2023/07/19 08:54:53;;;;;;;1.90;1.40;;;;;;;25.52;30.84;98718.15;107835;1308;23251;-50
2023/07/19 08:57:18;;;;;;;4.60;1.40;;;;;;;25.79;30.60;98719.91;107849;1308;22383;-47
2023/07/19 08:59:43;;;;;;;14.50;2.30;;;;;;;26.03;30.44;98714.92;107809;1308;22558;-50
2023/07/19 09:02:09;;;;;;;4.50;1.40;;;;;;;26.21;29.17;98718.40;107864;1302;23003;-45
2023/07/19 09:04:35;;;;;;;4.50;1.60;;;;;;;26.39;29.54;98718.44;107971;1307;25035;-45
2023/07/19 09:07:04;;;;;;;1.80;1.40;;;;;;;26.63;29.47;98719.46;107961;1307;22400;-46
2023/07/19 09:09:29;;;;;;;2.40;1.30;;;;;;;26.88;28.51;98718.21;107949;1307;22947;-51
2023/07/19 09:11:55;;;;;;;2.60;1.40;;;;;;;27.13;28.27;98719.66;107955;1307;22230;-50
2023/07/19 09:14:33;;;;;;;3.70;1.50;;;;;;;27.31;27.09;98716.70;107927;1307;22409;-49
2023/07/19 09:16:59;;;;;;;3.40;1.30;;;;;;;27.40;26.88;98708.91;107929;1307;22406;-51
2023/07/19 09:19:24;;;;;;;1.40;1.20;;;;;;;27.58;27.07;98709.95;107972;1307;22309;-50
2023/07/19 09:21:50;;;;;;;3.30;1.30;;;;;;;27.71;26.69;98702.52;107947;1307;22297;-47
2023/07/19 09:24:16;;;;;;;3.70;1.20;;;;;;;27.78;26.20;98694.53;107949;1304;22259;-47
2023/07/19 09:26:48;;;;;;;3.90;1.50;;;;;;;28.00;26.29;98693.77;107767;1302;22963;-52
2023/07/19 09:29:13;;;;;;;2.00;1.30;;;;;;;28.22;26.20;98694.73;107876;1302;22360;-53
2023/07/19 09:31:59;;;;;;;1.20;1.10;;;;;;;28.44;26.78;98692.02;107911;1288;22544;-52
2023/07/19 09:34:38;;;;;;;3.50;1.50;;;;;;;28.46;26.41;98687.98;107932;1307;23040;-53
2023/07/19 09:37:04;;;;;;;2.20;1.30;;;;;;;28.64;25.94;98686.48;107945;1307;22245;-52
2023/07/19 09:39:31;;;;;;;3.70;1.50;;;;;;;29.00;25.53;98683.50;107943;1307;22274;-53
2023/07/19 09:41:57;;;;;;;4.60;1.20;;;;;;;29.40;25.46;98679.87;107963;1307;22261;-56
2023/07/19 09:44:23;;;;;;;2.30;1.50;;;;;;;29.93;25.12;98674.08;107928;1307;22507;-54
2023/07/19 09:46:48;;;;;;;3.90;2.40;;;;;;;30.38;23.92;98670.89;107959;1307;22286;-56
2023/07/19 09:49:14;;;;;;;2.00;1.30;;;;;;;30.78;23.63;98668.89;107924;1307;22469;-54
2023/07/19 09:51:41;;;;;;;4.90;1.30;;;;;;;31.32;23.88;98672.77;107941;1307;22353;-54
2023/07/19 09:54:08;;;;;;;1.90;0.90;;;;;;;31.52;22.46;98671.34;107953;1307;22305;-53
2023/07/19 09:56:34;;;;;;;2.30;1.20;;;;;;;31.63;22.15;98659.48;107921;1307;22395;-56
2023/07/19 09:59:01;;;;;;;1.40;1.30;;;;;;;31.95;22.20;98649.36;107954;1307;22255;-56
2023/07/19 10:01:26;;;;;;;2.10;1.20;;;;;;;32.20;22.04;98654.08;107911;1307;22271;-56
2023/07/19 10:03:52;;;;;;;4.40;1.40;;;;;;;32.42;21.63;98650.34;107940;1307;22392;-52
2023/07/19 10:06:17;;;;;;;2.60;1.40;;;;;;;32.71;21.44;98648.02;107963;1307;23171;-54
2023/07/19 10:08:43;;;;;;;2.90;1.30;;;;;;;32.89;21.10;98645.51;107960;1307;23152;-56
2023/07/19 10:11:21;;;;;;;2.50;1.30;;;;;;;33.27;21.66;98648.76;107956;1307;22983;-54
2023/07/19 10:13:59;;;;;;;2.50;1.40;;;;;;;33.56;20.63;98648.27;107937;1307;22767;-55
2023/07/19 10:16:31;;;;;;;1.50;1.20;;;;;;;33.95;20.74;98639.92;107955;1307;22312;-53
2023/07/19 10:19:13;;;;;;;7.30;2.40;;;;;;;33.76;20.25;98637.83;107933;1307;22248;-54
2023/07/19 10:21:43;;;;;;;3.30;1.30;;;;;;;33.76;20.95;98638.59;107942;1307;22455;-56
2023/07/19 10:24:09;;;;;;;2.80;1.30;;;;;;;33.41;20.21;98630.07;107934;1307;22257;-51
2023/07/19 10:26:38;;;;;;;2.60;1.20;;;;;;;33.52;20.21;98628.59;107975;1307;23172;-52
2023/07/19 10:29:04;;;;;;;3.00;1.30;;;;;;;33.53;19.73;98622.70;107946;1288;22408;-52
2023/07/19 10:31:30;;;;;;;2.90;1.40;;;;;;;33.55;20.19;98623.29;107969;1307;22260;-50
2023/07/19 10:33:56;;;;;;;;;;;;;;;34.06;20.35;98627.95;107961;1307;22477;-54
2023/07/19 10:36:21;;;;;;;1.70;1.50;;;;;;;33.99;19.92;98628.59;107931;1307;22330;-54
2023/07/19 10:38:47;;;;;;;1.60;1.20;;;;;;;33.80;19.64;98626.64;107931;1307;22217;-54
2023/07/19 10:41:14;;;;;;;1.20;1.10;;;;;;;33.24;20.11;98619.73;107947;1307;22412;-55
2023/07/19 10:43:40;;;;;;;2.40;1.20;;;;;;;33.29;20.55;98616.59;107938;1307;22381;-60
2023/07/19 10:46:05;;;;;;;1.40;1.20;;;;;;;33.46;20.28;98611.28;107926;1307;22246;-54
2023/07/19 10:48:32;;;;;;;3.20;1.20;;;;;;;33.44;20.46;98609.56;107950;1307;22299;-54
2023/07/19 10:51:03;;;;;;;1.80;1.50;;;;;;;33.39;20.55;98611.17;107938;1307;22915;-53
2023/07/19 10:53:30;;;;;;;3.60;1.50;;;;;;;33.66;20.15;98612.39;107799;1307;22305;-53
2023/07/19 10:55:56;;;;;;;;;;;;;;;33.73;19.69;98608.89;107933;1307;22470;-48
2023/07/19 10:58:22;;;;;;;1.80;1.50;;;;;;;34.06;19.40;98601.05;107937;1307;22228;-53
2023/07/19 11:00:48;;;;;;;1.40;1.30;;;;;;;34.68;19.21;98601.23;107941;1307;22246;-48
2023/07/19 11:03:15;;;;;;;3.20;1.90;;;;;;;34.93;18.38;98598.73;107956;1307;23271;-55
2023/07/19 11:05:51;;;;;;;1.70;1.50;;;;;;;35.45;18.15;98598.02;107943;1307;22353;-50
2023/07/19 11:08:26;;;;;;;;;;;;;;;35.94;17.51;98594.02;107965;1307;22476;-51
2023/07/19 11:10:54;;;;;;;1.50;1.30;;;;;;;36.25;17.22;98601.52;107962;1307;23103;-49
2023/07/19 11:13:22;;;;;;;1.90;1.20;;;;;;;36.26;16.70;98605.58;107930;1307;23211;-52
2023/07/19 11:15:49;;;;;;;3.20;1.30;;;;;;;36.33;16.91;98607.59;107977;1307;22385;-51
2023/07/19 11:18:30;;;;;;;5.60;1.40;;;;;;;35.89;17.32;98602.56;107933;1307;23022;-50